North Brookfield, New York
Current Conditions -  °F | °C
As of 4:53 PM on Friday 28 Nov 2014 (Local Time) from KRME Reporting Station
Light Snow Light Snow  
Wind Chill: 12°   Ceiling: 5000
Heat Index: 24°   Visibility: 9mi
Dew Point: 18°   Wind: 13mph
Humidity: 77%   Direction: 280°W
Pressure: 30.21"   Gusts: NA
Location:  42.85°N, 75.39°W
Report Text: KRME 282153Z 28011KT 9SM -SN FEW021 OVC050 M04/M08 A3021 RMK AO2 UPB14E18B40E51SNE14B18E36B51 SLP236 P0000 T10441078
Loading
Personal Weather Stations






























Interactive Weather Map New forecast layout! Learn more

10-Day Weather Forecast

Advertisements
Track Severe Weather on mobile